Time;durP1;ratioP1;P1;durP2;ratioP2;P2;SDS_P1;SDS_P2;PMS_P1;PMS_P2;Temp;Humidity;BMP_temperature;BMP_pressure;BME280_temperature;BME280_humidity;BME280_pressure;Samples;Min_cycle;Max_cycle;Signal;HPM_P1;HPM_P2
2021/11/26 00:00:08;;;;;;;21.60;17.60;;;;;;;4.62;72.39;98370.63;1757512;80;20910;-66
2021/11/26 00:02:35;;;;;;;20.05;15.70;;;;;;;4.57;72.40;98362.38;1772169;80;20967;-65
2021/11/26 00:05:03;;;;;;;22.02;16.30;;;;;;;4.66;72.03;98364.08;1765772;80;20879;-65
2021/11/26 00:07:31;;;;;;;23.73;16.77;;;;;;;4.69;71.89;98352.70;1763242;80;21155;-66
2021/11/26 00:09:58;;;;;;;23.07;15.55;;;;;;;4.70;71.86;98360.95;1747161;81;20978;-66
2021/11/26 00:12:25;;;;;;;21.35;15.80;;;;;;;4.64;72.12;98368.17;1765024;80;21001;-66
2021/11/26 00:15:17;;;;;;;20.12;15.08;;;;;;;4.58;72.33;98357.46;1758034;80;21387;-66
2021/11/26 00:17:22;;;;;;;21.80;15.48;;;;;;;4.59;72.49;98359.92;1747517;80;20979;-67
2021/11/26 00:19:51;;;;;;;20.57;15.65;;;;;;;4.62;72.45;98364.05;1763280;80;20848;-68
2021/11/26 00:22:17;;;;;;;22.02;15.80;;;;;;;4.58;72.44;98364.88;1757799;80;21474;-67
2021/11/26 00:24:44;;;;;;;16.95;14.30;;;;;;;4.62;72.41;98364.05;1758733;81;20899;-67
2021/11/26 00:27:11;;;;;;;18.52;14.93;;;;;;;4.63;72.46;98360.44;1759184;81;20899;-66
2021/11/26 00:29:37;;;;;;;21.12;15.18;;;;;;;4.76;72.10;98355.05;1752486;81;20967;-68
2021/11/26 00:32:06;;;;;;;22.75;16.27;;;;;;;4.78;71.73;98353.08;1763787;81;23160;-66
2021/11/26 00:34:33;;;;;;;22.22;15.28;;;;;;;4.84;71.53;98356.88;1764319;81;21050;-68
2021/11/26 00:37:00;;;;;;;18.92;15.25;;;;;;;4.86;71.49;98349.63;1763933;81;20904;-66
2021/11/26 00:39:27;;;;;;;19.15;15.50;;;;;;;4.87;71.37;98346.02;1763363;81;21423;-65
2021/11/26 00:41:53;;;;;;;22.30;15.45;;;;;;;4.85;71.39;98344.84;1746546;81;20993;-66
2021/11/26 00:44:20;;;;;;;21.68;16.73;;;;;;;4.86;71.32;98340.41;1757779;81;21228;-67
2021/11/26 00:46:46;;;;;;;21.52;15.32;;;;;;;4.79;71.28;98345.52;1765243;81;20972;-67
2021/11/26 00:49:13;;;;;;;21.73;16.05;;;;;;;4.74;71.41;98351.77;1761034;81;20990;-66
2021/11/26 00:51:40;;;;;;;19.45;15.38;;;;;;;4.77;71.37;98342.19;1751741;81;20983;-66
2021/11/26 00:54:09;;;;;;;21.42;15.40;;;;;;;4.75;71.31;98336.75;1754365;81;21556;-66
2021/11/26 00:56:36;;;;;;;19.27;14.53;;;;;;;4.73;71.37;98328.19;1763019;81;21119;-66
2021/11/26 00:59:03;;;;;;;23.50;15.50;;;;;;;4.74;71.58;98333.80;1746122;81;20920;-68
2021/11/26 01:01:31;;;;;;;21.52;14.83;;;;;;;4.80;71.45;98325.23;1755534;81;20936;-67
2021/11/26 01:03:58;;;;;;;20.37;15.50;;;;;;;4.86;71.31;98321.48;1748036;81;20994;-67
2021/11/26 01:06:25;;;;;;;24.35;15.85;;;;;;;4.88;71.16;98322.13;1751935;81;20868;-66
2021/11/26 01:08:52;;;;;;;19.57;14.47;;;;;;;4.87;71.02;98319.19;1753439;81;21977;-65
2021/11/26 01:11:18;;;;;;;20.72;14.90;;;;;;;4.84;70.95;98318.19;1739158;81;20967;-67
2021/11/26 01:13:46;;;;;;;17.23;14.33;;;;;;;4.76;71.00;98323.92;1755511;81;20970;-67
2021/11/26 01:16:13;;;;;;;20.43;14.40;;;;;;;4.64;71.23;98316.80;1764405;81;20864;-65
2021/11/26 01:18:39;;;;;;;17.27;14.85;;;;;;;4.62;71.43;98304.78;1756215;81;20918;-66
2021/11/26 01:21:07;;;;;;;18.00;14.47;;;;;;;4.61;71.52;98298.70;1719617;82;21148;-65
2021/11/26 01:23:36;;;;;;;16.85;14.73;;;;;;;4.59;71.45;98303.81;1714504;82;20928;-67
2021/11/26 01:26:04;;;;;;;19.05;13.85;;;;;;;4.60;71.64;98299.68;1748313;81;20984;-66
2021/11/26 01:28:33;;;;;;;22.25;13.65;;;;;;;4.67;71.59;98300.67;1736590;81;20985;-67
2021/11/26 01:30:59;;;;;;;20.12;15.10;;;;;;;4.75;71.32;98312.55;1744694;82;20983;-66
2021/11/26 01:33:26;;;;;;;22.05;14.80;;;;;;;4.72;71.17;98311.55;1741090;81;21933;-68
2021/11/26 01:35:54;;;;;;;24.10;14.53;;;;;;;4.65;71.25;98304.45;1742384;80;20898;-66
2021/11/26 01:38:22;;;;;;;16.70;14.03;;;;;;;4.70;71.28;98310.89;1741460;81;20959;-67
2021/11/26 01:40:49;;;;;;;19.52;14.90;;;;;;;4.75;71.14;98304.65;1747862;81;20942;-67
2021/11/26 01:43:17;;;;;;;16.00;14.03;;;;;;;4.78;71.07;98305.65;1747640;81;21006;-65
2021/11/26 01:45:51;;;;;;;18.70;14.93;;;;;;;4.81;70.96;98293.47;1736281;81;21170;-66
2021/11/26 01:48:18;;;;;;;18.65;15.60;;;;;;;4.78;70.86;98297.74;1743408;81;21019;-65
2021/11/26 01:50:44;;;;;;;17.85;13.62;;;;;;;4.72;70.90;98294.42;1732048;81;20899;-65
2021/11/26 01:53:12;;;;;;;20.05;14.45;;;;;;;4.77;70.99;98290.81;1748685;82;20899;-66
2021/11/26 01:55:39;;;;;;;20.00;14.38;;;;;;;4.84;70.86;98298.42;1745610;81;21011;-68
2021/11/26 01:58:10;;;;;;;20.72;15.13;;;;;;;4.86;70.66;98302.20;1741842;81;21167;-67
2021/11/26 02:00:34;;;;;;;20.55;14.28;;;;;;;4.83;70.53;98304.66;1743152;81;20971;-68
2021/11/26 02:03:02;;;;;;;15.40;13.20;;;;;;;4.81;70.68;98292.64;1733985;81;20917;-66
2021/11/26 02:05:30;;;;;;;26.15;15.60;;;;;;;4.81;70.74;98291.33;1736462;81;20999;-67
2021/11/26 02:07:57;;;;;;;20.95;14.55;;;;;;;4.82;70.71;98285.87;1742933;81;21418;-68
2021/11/26 02:10:25;;;;;;;19.45;13.88;;;;;;;4.84;70.72;98291.83;1739288;81;21166;-67
2021/11/26 02:12:52;;;;;;;21.45;14.45;;;;;;;4.84;70.72;98277.83;1737604;81;20927;-66
2021/11/26 02:15:22;;;;;;;16.55;13.70;;;;;;;4.93;70.55;98284.73;1735678;81;21505;-66
2021/11/26 02:17:53;;;;;;;17.90;13.65;;;;;;;4.99;70.36;98278.82;1740270;81;21037;-67
2021/11/26 02:20:23;;;;;;;21.68;15.80;;;;;;;5.03;70.21;98280.65;1735853;81;21772;-66
2021/11/26 02:22:50;;;;;;;21.20;15.30;;;;;;;5.09;70.08;98276.02;1735129;81;21092;-66
2021/11/26 02:25:18;;;;;;;21.42;15.48;;;;;;;5.07;70.03;98272.73;1733965;81;20999;-66
2021/11/26 02:27:45;;;;;;;18.25;14.75;;;;;;;5.02;69.86;98274.55;1763423;80;21434;-66
2021/11/26 02:30:16;;;;;;;19.10;14.90;;;;;;;4.95;69.79;98265.14;1765347;80;20948;-66
2021/11/26 02:32:48;;;;;;;18.02;13.75;;;;;;;4.90;70.02;98278.50;1761703;80;20955;-66
2021/11/26 02:35:15;;;;;;;20.40;15.03;;;;;;;4.86;70.20;98258.23;1754493;80;21135;-66
2021/11/26 02:37:41;;;;;;;19.23;14.55;;;;;;;4.88;70.14;98274.69;1764502;80;22072;-67
2021/11/26 02:40:13;;;;;;;16.95;14.05;;;;;;;4.85;70.21;98275.02;1752500;80;20935;-67
2021/11/26 02:42:40;;;;;;;19.55;14.90;;;;;;;4.74;70.54;98270.09;1768772;80;20982;-68
2021/11/26 02:45:09;;;;;;;20.17;13.72;;;;;;;4.74;70.68;98271.41;1765983;80;21089;-67
2021/11/26 02:47:36;;;;;;;17.12;13.53;;;;;;;4.77;70.81;98263.14;1769165;80;21129;-67
2021/11/26 02:50:06;;;;;;;18.25;13.38;;;;;;;4.84;70.80;98262.84;1758082;80;20955;-66
2021/11/26 02:52:37;;;;;;;19.48;14.15;;;;;;;4.90;70.46;98262.17;1759805;80;21039;-67
2021/11/26 02:55:06;;;;;;;17.55;14.20;;;;;;;4.85;70.40;98263.64;1764399;80;21552;-65
2021/11/26 02:57:33;;;;;;;18.42;13.43;;;;;;;4.77;70.55;98255.77;1759660;80;21003;-66
2021/11/26 03:00:04;;;;;;;19.55;14.50;;;;;;;4.79;70.62;98246.70;1765471;80;21084;-65
2021/11/26 03:02:31;;;;;;;19.17;14.18;;;;;;;4.78;70.55;98260.02;1770837;80;21504;-67
2021/11/26 03:04:58;;;;;;;17.82;13.95;;;;;;;4.75;70.56;98253.27;1771721;80;21346;-68
2021/11/26 03:07:25;;;;;;;17.48;13.90;;;;;;;4.75;70.66;98253.76;1765863;80;20891;-67
2021/11/26 03:09:51;;;;;;;17.37;13.30;;;;;;;4.78;70.69;98252.95;1755469;80;21402;-68
2021/11/26 03:12:18;;;;;;;18.60;14.00;;;;;;;4.77;70.51;98251.81;1762996;80;21509;-67
2021/11/26 03:14:45;;;;;;;18.37;14.60;;;;;;;4.78;70.51;98259.54;1771808;80;20966;-67
2021/11/26 03:17:11;;;;;;;18.52;14.33;;;;;;;4.80;70.36;98250.14;1753719;80;20883;-66
2021/11/26 03:19:39;;;;;;;22.52;14.83;;;;;;;4.75;70.44;98248.00;1755059;80;21015;-65
2021/11/26 03:22:06;;;;;;;20.52;14.95;;;;;;;4.76;70.58;98237.80;1757315;80;20923;-66
2021/11/26 03:24:33;;;;;;;17.85;13.60;;;;;;;4.82;70.57;98235.81;1751166;80;21062;-66
2021/11/26 03:27:00;;;;;;;16.45;13.60;;;;;;;4.84;70.53;98240.94;1746507;80;21062;-66
2021/11/26 03:29:26;;;;;;;20.17;14.05;;;;;;;4.88;70.43;98232.53;1756268;80;20986;-65
2021/11/26 03:31:53;;;;;;;18.45;15.15;;;;;;;4.90;70.31;98232.38;1762607;81;21048;-65
2021/11/26 03:34:20;;;;;;;19.12;15.13;;;;;;;4.96;70.29;98230.39;1764153;81;21470;-66
2021/11/26 03:36:46;;;;;;;18.45;14.10;;;;;;;5.03;70.20;98225.30;1766132;81;21155;-67
2021/11/26 03:39:13;;;;;;;22.75;16.60;;;;;;;5.10;69.97;98222.31;1757931;81;20924;-66
2021/11/26 03:41:41;;;;;;;19.37;15.30;;;;;;;5.10;69.79;98224.95;1759333;81;20955;-65
2021/11/26 03:44:08;;;;;;;22.62;16.00;;;;;;;5.12;69.75;98220.33;1764485;81;21042;-67
2021/11/26 03:46:34;;;;;;;20.27;15.05;;;;;;;5.17;69.65;98225.92;1763031;81;21525;-67
2021/11/26 03:49:01;;;;;;;23.07;16.85;;;;;;;5.18;69.66;98213.91;1741572;81;21154;-66
2021/11/26 03:51:28;;;;;;;21.42;15.23;;;;;;;5.23;69.60;98206.81;1749296;81;20969;-66
2021/11/26 03:53:56;;;;;;;18.87;14.85;;;;;;;5.25;69.57;98204.83;1762938;81;20972;-66
2021/11/26 03:56:22;;;;;;;18.87;14.78;;;;;;;5.27;69.31;98212.06;1749392;81;20971;-66
2021/11/26 03:58:49;;;;;;;20.43;15.32;;;;;;;5.25;69.15;98210.09;1763437;81;20978;-65
2021/11/26 04:01:16;;;;;;;18.50;13.95;;;;;;;5.26;69.17;98214.39;1761080;81;21149;-65
2021/11/26 04:03:43;;;;;;;19.30;14.75;;;;;;;5.28;69.17;98213.23;1745852;81;21442;-68
2021/11/26 04:06:10;;;;;;;18.55;13.85;;;;;;;5.32;68.98;98219.01;1764384;81;20986;-66
2021/11/26 04:08:36;;;;;;;22.13;13.38;;;;;;;5.31;68.78;98222.63;1765315;81;20935;-67
2021/11/26 04:11:05;;;;;;;19.92;14.78;;;;;;;5.27;68.78;98216.02;1749038;81;21538;-66
2021/11/26 04:13:31;;;;;;;15.72;13.38;;;;;;;5.25;68.84;98219.33;1756670;81;21057;-66
2021/11/26 04:16:03;;;;;;;16.85;13.48;;;;;;;5.21;68.75;98215.39;1748897;81;20979;-66
2021/11/26 04:18:27;;;;;;;15.98;13.10;;;;;;;5.11;68.93;98218.18;1746674;80;20970;-66
2021/11/26 04:20:55;;;;;;;17.77;13.28;;;;;;;5.08;69.01;98208.48;1763247;81;21108;-67
2021/11/26 04:23:21;;;;;;;16.90;13.53;;;;;;;5.04;69.07;98204.52;1752328;81;20888;-66
2021/11/26 04:25:47;;;;;;;15.43;13.83;;;;;;;5.04;69.28;98209.79;1755414;81;21169;-66
2021/11/26 04:28:14;;;;;;;19.20;13.08;;;;;;;5.08;69.32;98204.05;1748329;81;20939;-66
2021/11/26 04:30:41;;;;;;;16.00;13.65;;;;;;;5.16;69.24;98207.98;1762258;81;20895;-67
2021/11/26 04:33:09;;;;;;;19.87;14.23;;;;;;;5.24;69.07;98203.20;1751396;81;21485;-66
2021/11/26 04:35:36;;;;;;;15.55;13.93;;;;;;;5.25;68.83;98204.33;1758161;81;20963;-67
2021/11/26 04:38:02;;;;;;;18.87;13.98;;;;;;;5.24;68.90;98206.62;1768703;81;21560;-70
2021/11/26 04:40:31;;;;;;;17.05;13.48;;;;;;;5.20;68.69;98200.55;1760538;81;21014;-67
2021/11/26 04:42:58;;;;;;;18.65;13.60;;;;;;;5.15;68.82;98197.59;1764540;81;20983;-66
2021/11/26 04:45:25;;;;;;;18.20;13.45;;;;;;;5.15;68.92;98196.27;1748598;81;20903;-67
2021/11/26 04:47:51;;;;;;;17.35;13.08;;;;;;;5.18;68.90;98197.27;1769634;81;20884;-67
2021/11/26 04:50:18;;;;;;;15.53;12.98;;;;;;;5.22;68.84;98212.58;1753900;81;21474;-65
2021/11/26 04:52:46;;;;;;;20.10;14.00;;;;;;;5.21;68.67;98210.12;1764315;81;21636;-67
2021/11/26 04:55:13;;;;;;;17.65;13.55;;;;;;;5.16;68.78;98209.31;1762122;81;20896;-69
2021/11/26 04:57:40;;;;;;;19.60;13.53;;;;;;;5.20;68.73;98211.92;1750984;81;20923;-67
2021/11/26 05:00:09;;;;;;;16.07;13.53;;;;;;;5.16;68.65;98220.34;1756989;81;21521;-69
2021/11/26 05:02:36;;;;;;;19.27;13.85;;;;;;;5.15;68.75;98214.23;1744972;81;21387;-70
2021/11/26 05:05:04;;;;;;;19.27;13.83;;;;;;;5.18;68.75;98209.13;1740234;81;21465;-65
2021/11/26 05:07:31;;;;;;;20.55;14.18;;;;;;;5.21;68.76;98208.80;1755362;81;21666;-68
2021/11/26 05:10:02;;;;;;;20.90;14.65;;;;;;;5.23;68.62;98203.69;1755622;81;20951;-67
2021/11/26 05:12:33;;;;;;;19.60;14.90;;;;;;;5.24;68.60;98201.87;1755575;81;21461;-68
2021/11/26 05:14:58;;;;;;;17.77;14.30;;;;;;;5.25;68.57;98199.06;1755262;81;20876;-67
2021/11/26 05:17:25;;;;;;;23.55;14.83;;;;;;;5.27;68.42;98193.12;1742238;81;20943;-65
2021/11/26 05:20:04;;;;;;;23.47;15.28;;;;;;;5.27;68.41;98201.03;1760083;81;21004;-66
2021/11/26 05:22:31;;;;;;;21.65;15.13;;;;;;;5.34;68.22;98201.20;1739950;81;21968;-66
2021/11/26 05:24:58;;;;;;;18.98;14.65;;;;;;;5.30;68.27;98204.66;1699591;84;20986;-67
2021/11/26 05:27:24;;;;;;;18.75;14.00;;;;;;;5.31;68.14;98204.16;1749696;81;21144;-67
2021/11/26 05:29:52;;;;;;;19.10;13.50;;;;;;;5.35;68.09;98198.38;1755355;81;20833;-62
2021/11/26 05:32:19;;;;;;;19.98;13.78;;;;;;;5.34;68.15;98199.88;1748345;81;20951;-62
2021/11/26 05:34:46;;;;;;;20.00;13.20;;;;;;;5.37;68.05;98198.23;1744922;81;20892;-69
2021/11/26 05:37:13;;;;;;;17.82;15.05;;;;;;;5.40;67.88;98200.02;1753654;81;21046;-68
2021/11/26 05:39:41;;;;;;;16.52;13.80;;;;;;;5.40;67.80;98201.33;1748248;81;21203;-69
2021/11/26 05:42:09;;;;;;;16.93;14.25;;;;;;;5.36;67.94;98202.67;1748414;81;20987;-68
2021/11/26 05:44:36;;;;;;;18.67;14.07;;;;;;;5.31;67.89;98202.36;1760519;80;20896;-65
2021/11/26 05:47:03;;;;;;;18.55;15.20;;;;;;;5.27;67.98;98208.11;1757370;81;21665;-62
2021/11/26 05:49:29;;;;;;;20.45;15.35;;;;;;;5.29;68.00;98193.77;1746826;81;21070;-63
2021/11/26 05:51:57;;;;;;;16.30;13.83;;;;;;;5.31;67.93;98196.25;1759290;81;21159;-65
2021/11/26 05:54:24;;;;;;;23.60;15.85;;;;;;;5.30;67.96;98195.42;1760877;81;21426;-63
2021/11/26 05:56:51;;;;;;;19.07;15.45;;;;;;;5.32;67.91;98195.27;1742489;81;20967;-61
2021/11/26 05:59:18;;;;;;;17.37;14.95;;;;;;;5.33;67.88;98206.12;1758096;81;21045;-63
2021/11/26 06:01:46;;;;;;;19.73;14.80;;;;;;;5.35;67.76;98207.61;1752784;81;21426;-65
2021/11/26 06:04:13;;;;;;;23.90;16.73;;;;;;;5.32;67.74;98225.59;1755715;81;21152;-64
2021/11/26 06:06:41;;;;;;;21.25;16.55;;;;;;;5.28;67.77;98224.27;1758870;81;21510;-66
2021/11/26 06:09:09;;;;;;;22.58;16.12;;;;;;;5.25;67.75;98214.05;1755791;81;21019;-68
2021/11/26 06:11:37;;;;;;;24.40;16.40;;;;;;;5.22;67.76;98209.94;1756541;81;21190;-67
2021/11/26 06:14:04;;;;;;;21.55;16.07;;;;;;;5.24;67.69;98213.74;1745833;81;20924;-68
2021/11/26 06:16:30;;;;;;;28.62;18.27;;;;;;;5.22;67.85;98211.74;1758368;81;21151;-65
2021/11/26 06:19:01;;;;;;;26.57;18.12;;;;;;;5.24;67.79;98210.59;1757509;81;20927;-65
2021/11/26 06:21:29;;;;;;;31.25;20.30;;;;;;;5.15;68.19;98222.64;1756101;81;20932;-65
2021/11/26 06:23:56;;;;;;;30.17;18.37;;;;;;;5.12;68.44;98217.20;1751152;81;20985;-65
2021/11/26 06:26:22;;;;;;;30.72;19.48;;;;;;;5.15;68.74;98226.59;1753660;81;21039;-66
2021/11/26 06:28:49;;;;;;;29.57;19.07;;;;;;;5.13;69.08;98221.50;1765590;81;21152;-66
2021/11/26 06:31:16;;;;;;;23.52;18.65;;;;;;;5.10;69.35;98219.19;1745990;81;21204;-66
2021/11/26 06:33:44;;;;;;;23.30;16.17;;;;;;;5.10;69.57;98207.33;1750380;81;20911;-66
2021/11/26 06:36:10;;;;;;;25.48;15.93;;;;;;;5.16;69.60;98209.80;1752355;81;20924;-65
2021/11/26 06:38:37;;;;;;;20.17;15.53;;;;;;;5.18;69.62;98203.36;1757093;81;21045;-65
2021/11/26 06:41:04;;;;;;;24.40;16.07;;;;;;;5.19;69.83;98210.27;1748556;81;21190;-65
2021/11/26 06:43:31;;;;;;;20.02;15.20;;;;;;;5.14;70.01;98195.44;1751903;81;20919;-65
2021/11/26 06:45:57;;;;;;;26.02;17.20;;;;;;;5.20;70.14;98198.74;1748245;81;20991;-64
2021/11/26 06:48:26;;;;;;;21.80;17.42;;;;;;;5.29;70.03;98194.28;1760563;81;21441;-65
2021/11/26 06:50:53;;;;;;;29.65;20.32;;;;;;;5.39;69.84;98188.33;1755397;80;20979;-64
2021/11/26 06:53:19;;;;;;;28.90;20.40;;;;;;;5.43;69.71;98189.63;1756338;81;21130;-65
2021/11/26 06:55:46;;;;;;;29.90;19.67;;;;;;;5.42;69.72;98201.18;1749768;81;20876;-65
2021/11/26 06:58:12;;;;;;;30.60;21.90;;;;;;;5.36;69.99;98205.31;1750025;81;20923;-64
2021/11/26 07:00:39;;;;;;;28.73;20.52;;;;;;;5.33;70.15;98211.41;1762059;81;20995;-64
2021/11/26 07:03:07;;;;;;;25.30;19.57;;;;;;;5.38;70.21;98213.88;1754213;81;20998;-64
2021/11/26 07:05:34;;;;;;;34.23;21.73;;;;;;;5.46;70.21;98219.63;1760404;81;21160;-64
2021/11/26 07:08:00;;;;;;;24.37;18.57;;;;;;;5.56;69.85;98221.08;1755926;81;21023;-65
2021/11/26 07:10:26;;;;;;;21.68;16.25;;;;;;;5.62;69.52;98223.55;1755803;81;21041;-65
2021/11/26 07:12:53;;;;;;;21.35;15.85;;;;;;;5.67;68.99;98213.79;1752746;81;20888;-65
2021/11/26 07:15:21;;;;;;;20.50;16.23;;;;;;;5.53;68.99;98220.59;1743305;81;21481;-65
2021/11/26 07:17:47;;;;;;;18.17;15.53;;;;;;;5.50;69.08;98218.31;1763044;81;21148;-64
2021/11/26 07:20:15;;;;;;;20.05;15.48;;;;;;;5.57;69.07;98206.08;1750900;80;20915;-64
2021/11/26 07:22:43;;;;;;;20.75;15.60;;;;;;;5.55;69.29;98211.51;1752168;81;20931;-65
2021/11/26 07:25:10;;;;;;;21.62;16.37;;;;;;;5.53;69.31;98208.22;1760479;81;20995;-64
2021/11/26 07:27:38;;;;;;;22.50;15.43;;;;;;;5.61;69.23;98208.20;1760784;80;20935;-65
2021/11/26 07:30:06;;;;;;;22.93;16.27;;;;;;;5.65;69.35;98203.42;1763238;80;21068;-65
2021/11/26 07:32:35;;;;;;;22.82;15.38;;;;;;;5.68;69.51;98203.09;1723263;82;21037;-65
2021/11/26 07:35:01;;;;;;;20.10;15.28;;;;;;;5.68;69.56;98208.36;1757961;80;20868;-65
2021/11/26 07:37:28;;;;;;;19.67;16.37;;;;;;;5.68;69.66;98206.22;1762954;80;20891;-64
2021/11/26 07:39:57;;;;;;;32.42;21.17;;;;;;;5.71;69.90;98206.68;1762128;80;20907;-64
2021/11/26 07:42:24;;;;;;;38.63;23.10;;;;;;;5.73;69.90;98216.59;1765586;80;21793;-65
2021/11/26 07:44:50;;;;;;;32.17;20.97;;;;;;;5.76;69.63;98212.27;1752293;80;20927;-65
2021/11/26 07:47:18;;;;;;;29.75;20.20;;;;;;;5.73;69.51;98211.80;1731591;82;21026;-65
2021/11/26 07:49:45;;;;;;;25.37;19.10;;;;;;;5.78;69.21;98208.98;1767516;80;21072;-64
2021/11/26 07:52:12;;;;;;;21.42;18.35;;;;;;;5.73;69.21;98207.36;1764310;80;20883;-65
2021/11/26 07:54:39;;;;;;;22.40;17.45;;;;;;;5.71;69.21;98200.60;1762504;80;23327;-64
2021/11/26 07:57:08;;;;;;;22.50;17.75;;;;;;;5.68;69.42;98196.49;1750004;80;21029;-64
2021/11/26 07:59:35;;;;;;;23.87;17.50;;;;;;;5.66;69.58;98201.09;1765705;80;21018;-65
2021/11/26 08:02:04;;;;;;;22.90;16.87;;;;;;;5.57;69.65;98196.84;1762457;80;21350;-66
2021/11/26 08:04:32;;;;;;;21.27;16.50;;;;;;;5.47;69.74;98183.03;1765407;80;20954;-65
2021/11/26 08:06:59;;;;;;;17.90;15.08;;;;;;;5.48;69.63;98184.66;1750956;80;21163;-66
2021/11/26 08:09:27;;;;;;;17.02;15.10;;;;;;;5.42;69.63;98197.23;1767191;80;20962;-65
2021/11/26 08:11:55;;;;;;;18.02;16.10;;;;;;;5.45;69.58;98191.09;1757085;80;20848;-66
2021/11/26 08:14:23;;;;;;;19.10;15.00;;;;;;;5.54;69.55;98190.09;1767972;80;20911;-66
2021/11/26 08:16:50;;;;;;;21.10;15.53;;;;;;;5.55;69.55;98206.75;1757337;80;21141;-65
2021/11/26 08:19:18;;;;;;;20.95;14.28;;;;;;;5.58;69.43;98201.11;1752860;80;21868;-64
2021/11/26 08:21:45;;;;;;;15.25;13.53;;;;;;;5.65;69.25;98192.87;1770033;80;20932;-65
2021/11/26 08:24:11;;;;;;;17.30;13.68;;;;;;;5.74;69.07;98194.47;1766661;80;20892;-65
2021/11/26 08:26:40;;;;;;;16.82;14.55;;;;;;;5.79;68.82;98193.45;1760780;80;20951;-64
2021/11/26 08:29:07;;;;;;;19.52;13.65;;;;;;;5.84;68.41;98184.52;1765174;80;20979;-65
2021/11/26 08:31:34;;;;;;;18.60;14.38;;;;;;;5.82;68.04;98193.13;1752282;81;21410;-64
2021/11/26 08:34:03;;;;;;;23.12;14.83;;;;;;;5.81;68.21;98194.13;1760135;81;20887;-65
2021/11/26 08:36:29;;;;;;;19.05;15.05;;;;;;;5.77;68.17;98187.53;1759606;81;20923;-64
2021/11/26 08:38:59;;;;;;;20.95;15.65;;;;;;;5.73;68.23;98180.97;1756445;80;21633;-65
2021/11/26 08:41:26;;;;;;;20.23;15.68;;;;;;;5.69;68.17;98166.95;1754249;81;21093;-64
2021/11/26 08:43:53;;;;;;;15.85;13.70;;;;;;;5.66;68.14;98165.47;1759426;81;21157;-64
2021/11/26 08:46:20;;;;;;;17.57;12.75;;;;;;;5.64;68.24;98167.47;1762189;81;20919;-65
2021/11/26 08:48:47;;;;;;;16.77;13.72;;;;;;;5.67;68.33;98165.80;1752629;81;21552;-66
2021/11/26 08:51:14;;;;;;;17.17;13.98;;;;;;;5.72;67.95;98161.33;1763951;81;20963;-66
2021/11/26 08:53:45;;;;;;;17.65;14.75;;;;;;;5.71;68.07;98154.42;1754595;81;21064;-66
2021/11/26 08:56:11;;;;;;;16.30;13.95;;;;;;;5.78;68.23;98156.20;1755982;81;21356;-65
2021/11/26 08:58:40;;;;;;;16.55;13.48;;;;;;;5.88;67.91;98146.28;1753788;81;20986;-67
2021/11/26 09:01:07;;;;;;;15.40;13.78;;;;;;;5.95;67.62;98141.95;1740616;81;20986;-65
2021/11/26 09:03:34;;;;;;;15.40;13.50;;;;;;;6.03;67.29;98126.06;1760902;81;21006;-66
2021/11/26 09:06:01;;;;;;;16.85;13.48;;;;;;;6.08;67.34;98122.41;1756155;81;21451;-65
2021/11/26 09:08:28;;;;;;;15.88;14.07;;;;;;;6.06;67.10;98115.16;1759547;81;22008;-63
2021/11/26 09:10:55;;;;;;;15.55;13.25;;;;;;;6.02;67.29;98103.30;1756754;81;20911;-66
2021/11/26 09:13:22;;;;;;;15.83;13.88;;;;;;;6.06;67.46;98110.37;1763189;81;20934;-66
2021/11/26 09:15:50;;;;;;;16.95;15.13;;;;;;;6.09;68.07;98100.79;1751739;81;21478;-66
2021/11/26 09:18:17;;;;;;;18.65;14.63;;;;;;;6.03;68.82;98094.87;1763041;81;20971;-67
2021/11/26 09:20:49;;;;;;;18.32;14.18;;;;;;;5.92;69.51;98084.71;1746786;81;21069;-67
2021/11/26 09:23:14;;;;;;;15.00;13.40;;;;;;;5.87;69.47;98093.16;1759872;81;20904;-69
2021/11/26 09:25:41;;;;;;;16.48;13.80;;;;;;;5.90;69.46;98091.50;1759554;81;20944;-65
2021/11/26 09:28:08;;;;;;;16.73;13.50;;;;;;;6.00;69.39;98091.27;1765442;80;20999;-65
2021/11/26 09:30:35;;;;;;;15.85;14.25;;;;;;;6.05;69.01;98084.47;1766963;80;21505;-64
2021/11/26 09:33:01;;;;;;;16.77;14.07;;;;;;;6.04;68.85;98072.77;1767181;80;21845;-65
2021/11/26 09:35:30;;;;;;;15.15;13.05;;;;;;;6.01;68.75;98083.19;1772448;80;20923;-66
2021/11/26 09:37:59;;;;;;;16.02;13.25;;;;;;;6.05;68.54;98073.08;1726221;82;20896;-65
2021/11/26 09:40:26;;;;;;;15.93;14.20;;;;;;;6.09;68.51;98062.02;1767791;80;20956;-65
2021/11/26 09:42:53;;;;;;;18.40;15.13;;;;;;;6.12;68.13;98064.31;1766788;80;20891;-65
2021/11/26 09:45:22;;;;;;;15.32;13.65;;;;;;;5.96;68.28;98065.73;1764908;80;21832;-65
2021/11/26 09:47:50;;;;;;;15.93;14.07;;;;;;;5.88;68.69;98056.55;1772524;80;20982;-66
2021/11/26 09:50:19;;;;;;;15.20;13.60;;;;;;;5.82;68.95;98056.38;1768247;80;20955;-65
2021/11/26 09:52:46;;;;;;;14.30;12.88;;;;;;;5.89;68.96;98043.66;1774843;80;20927;-65
2021/11/26 09:55:14;;;;;;;14.00;12.47;;;;;;;5.90;68.99;98029.97;1758501;80;21395;-65
2021/11/26 09:57:42;;;;;;;17.35;13.45;;;;;;;5.86;69.42;98030.00;1763403;80;21863;-65
2021/11/26 10:00:11;;;;;;;14.85;12.63;;;;;;;5.80;69.60;98025.39;1763461;80;21031;-65
2021/11/26 10:02:38;;;;;;;16.23;14.03;;;;;;;5.84;69.53;98014.30;1770621;80;20935;-65
2021/11/26 10:05:08;;;;;;;14.90;12.33;;;;;;;5.79;69.80;97997.37;1747110;80;21553;-64
2021/11/26 10:07:49;;;;;;;14.95;13.38;;;;;;;5.76;70.20;98006.44;1761987;80;21018;-65
2021/11/26 10:10:29;;;;;;;14.15;12.50;;;;;;;5.79;70.58;98003.97;1761587;80;21142;-66
2021/11/26 10:13:14;;;;;;;15.98;12.70;;;;;;;5.92;70.16;98016.09;1770569;80;20904;-68
2021/11/26 10:15:45;;;;;;;14.10;12.58;;;;;;;5.98;69.38;98007.47;1761164;80;21422;-66
2021/11/26 10:18:42;;;;;;;15.00;13.13;;;;;;;5.98;69.41;98008.80;1761912;80;21473;-65
2021/11/26 10:21:10;;;;;;;16.42;12.37;;;;;;;5.93;70.13;98009.33;1630609;86;21041;-65
2021/11/26 10:23:44;;;;;;;16.65;13.90;;;;;;;6.05;70.20;97998.66;1691273;84;21134;-65
2021/11/26 10:26:17;;;;;;;15.53;13.78;;;;;;;6.17;70.30;97998.58;1689755;83;20894;-66
2021/11/26 10:28:50;;;;;;;14.87;12.58;;;;;;;6.39;69.92;97979.71;1690657;83;21078;-66
2021/11/26 10:31:35;;;;;;;14.83;13.25;;;;;;;6.48;69.21;97981.78;1687652;83;20997;-66
2021/11/26 10:34:05;;;;;;;15.00;13.50;;;;;;;6.49;68.43;97968.38;1690399;84;21013;-66
2021/11/26 10:36:44;;;;;;;15.85;12.50;;;;;;;6.51;68.17;97976.14;1687351;83;21004;-66
2021/11/26 10:39:21;;;;;;;15.03;13.35;;;;;;;6.50;67.49;97959.95;1688656;83;20910;-66
2021/11/26 10:41:52;;;;;;;14.50;13.00;;;;;;;6.53;67.83;97959.60;1695712;84;21508;-66
2021/11/26 10:44:19;;;;;;;16.27;13.83;;;;;;;6.68;67.88;97948.53;1689821;83;20958;-67
2021/11/26 10:52:50;;;;;;;15.25;13.58;;;;;;;6.81;67.18;97932.84;1693162;84;21013;-65
2021/11/26 10:58:04;;;;;;;14.98;12.45;;;;;;;6.77;67.07;97937.70;1688995;83;21012;-66
2021/11/26 11:00:20;;;;;;;17.60;13.43;;;;;;;6.84;67.21;97944.38;1684147;83;20942;-65
2021/11/26 11:02:56;;;;;;;16.45;13.80;;;;;;;6.92;67.18;97928.42;1695471;84;21754;-64
2021/11/26 11:05:35;;;;;;;17.27;12.07;;;;;;;7.01;66.99;97932.62;1691980;83;21555;-64
2021/11/26 11:08:07;;;;;;;15.18;12.15;;;;;;;7.00;66.79;97928.82;1688036;83;21120;-64
2021/11/26 11:10:39;;;;;;;14.00;12.13;;;;;;;7.07;66.47;97927.06;1689757;83;21412;-65
2021/11/26 11:13:13;;;;;;;14.68;12.18;;;;;;;7.10;65.92;97922.23;1685471;83;21531;-66
2021/11/26 11:15:40;;;;;;;13.95;12.55;;;;;;;7.02;65.96;97929.45;1686359;83;21157;-65
2021/11/26 11:18:07;;;;;;;15.48;13.22;;;;;;;7.00;66.54;97930.14;1685030;83;21337;-66
2021/11/26 11:20:35;;;;;;;16.73;11.90;;;;;;;6.88;66.65;97921.05;1686695;83;20946;-67
2021/11/26 11:23:03;;;;;;;13.30;11.90;;;;;;;6.88;67.01;97928.98;1678277;84;21023;-69
2021/11/26 11:25:30;;;;;;;18.40;12.95;;;;;;;6.97;67.17;97918.11;1681257;84;21045;-66
2021/11/26 11:28:04;;;;;;;13.95;12.45;;;;;;;6.93;67.26;97924.79;1686805;85;21130;-67
2021/11/26 11:30:30;;;;;;;17.15;12.25;;;;;;;6.95;67.40;97914.02;1679093;84;20922;-66
2021/11/26 11:32:57;;;;;;;14.45;12.37;;;;;;;6.97;67.11;97911.50;1678444;84;21014;-65
2021/11/26 11:35:26;;;;;;;14.23;12.18;;;;;;;7.04;66.84;97896.53;1679739;84;21009;-66